createdAt,value
2023-04-27T00:04:40.000Z,4.43
2023-04-27T00:09:31.000Z,4.51
2023-04-27T00:14:25.000Z,4.54
2023-04-27T00:19:19.000Z,4.63
2023-04-27T00:24:13.000Z,4.62
2023-04-27T00:29:07.000Z,4.59
2023-04-27T00:34:02.000Z,4.57
2023-04-27T00:38:55.000Z,4.46
2023-04-27T00:43:48.000Z,4.27
2023-04-27T00:48:42.000Z,4.23
2023-04-27T00:53:35.000Z,4.18
2023-04-27T00:58:30.000Z,4.18
2023-04-27T01:03:23.000Z,4.19
2023-04-27T01:08:17.000Z,4.28
2023-04-27T01:13:11.000Z,4.37
2023-04-27T01:18:05.000Z,4.39
2023-04-27T01:22:59.000Z,4.4
2023-04-27T01:27:51.000Z,4.26
2023-04-27T01:32:45.000Z,4.23
2023-04-27T01:37:42.000Z,4.16
2023-04-27T01:42:32.000Z,4.11
2023-04-27T01:47:26.000Z,3.91
2023-04-27T01:52:19.000Z,3.86
2023-04-27T01:57:13.000Z,3.9
2023-04-27T02:02:07.000Z,3.91
2023-04-27T02:07:02.000Z,3.85
2023-04-27T02:11:54.000Z,3.78
2023-04-27T02:16:48.000Z,3.71
2023-04-27T02:21:42.000Z,3.56
2023-04-27T02:26:36.000Z,3.37
2023-04-27T02:31:30.000Z,3.24
2023-04-27T02:36:23.000Z,3.13
2023-04-27T02:41:16.000Z,3.11
2023-04-27T02:46:11.000Z,3.11
2023-04-27T02:51:05.000Z,3.08
2023-04-27T02:55:59.000Z,3.11
2023-04-27T03:00:52.000Z,3.14
2023-04-27T03:05:46.000Z,3.12
2023-04-27T03:10:41.000Z,3.03
2023-04-27T03:15:32.000Z,2.96
2023-04-27T03:20:26.000Z,2.84
2023-04-27T03:25:19.000Z,2.83
2023-04-27T03:30:13.000Z,2.66
2023-04-27T03:35:08.000Z,2.56
2023-04-27T03:40:02.000Z,2.38
2023-04-27T03:44:56.000Z,2.43
2023-04-27T03:49:49.000Z,2.47
2023-04-27T03:54:43.000Z,2.6
2023-04-27T03:59:37.000Z,2.77
2023-04-27T04:04:31.000Z,2.96
2023-04-27T04:09:25.000Z,3.13
2023-04-27T04:14:19.000Z,3.25
2023-04-27T04:19:13.000Z,3.39
2023-04-27T04:24:07.000Z,3.49
2023-04-27T04:29:02.000Z,3.29
2023-04-27T04:33:56.000Z,3.4
2023-04-27T04:38:50.000Z,3.51
2023-04-27T04:43:45.000Z,3.62
2023-04-27T04:48:39.000Z,3.79
2023-04-27T04:53:32.000Z,3.92
2023-04-27T04:58:26.000Z,3.98
2023-04-27T05:03:21.000Z,4.18
2023-04-27T05:08:15.000Z,4.36
2023-04-27T05:13:09.000Z,4.42
2023-04-27T05:18:04.000Z,4.53
2023-04-27T05:22:57.000Z,4.68
2023-04-27T05:27:52.000Z,5.02
2023-04-27T05:32:46.000Z,4.98
2023-04-27T05:37:40.000Z,5.21
2023-04-27T05:42:35.000Z,5.6
2023-04-27T05:47:29.000Z,5.75
2023-04-27T05:52:21.000Z,5.93
2023-04-27T05:57:16.000Z,5.98
2023-04-27T06:02:11.000Z,6.23
2023-04-27T06:07:05.000Z,6.5
2023-04-27T06:11:59.000Z,6.59
2023-04-27T06:16:53.000Z,6.77
2023-04-27T06:21:46.000Z,6.92
2023-04-27T06:26:44.000Z,7.21
2023-04-27T06:31:35.000Z,7.69
2023-04-27T06:36:30.000Z,7.78
2023-04-27T06:41:23.000Z,8.1
2023-04-27T06:46:18.000Z,8.03
2023-04-27T06:51:12.000Z,8.12
2023-04-27T06:56:06.000Z,8.06
2023-04-27T07:01:01.000Z,8.75
2023-04-27T07:05:54.000Z,9.03
2023-04-27T07:10:48.000Z,9.26
2023-04-27T07:15:42.000Z,8.98
2023-04-27T07:20:35.000Z,9.22
2023-04-27T07:25:29.000Z,9.39
2023-04-27T07:30:23.000Z,9.43
2023-04-27T07:35:17.000Z,9.87
2023-04-27T07:40:12.000Z,9.87
2023-04-27T07:45:05.000Z,10
2023-04-27T07:49:59.000Z,9.91
2023-04-27T07:54:53.000Z,10.23
2023-04-27T07:59:47.000Z,10.26
2023-04-27T08:04:41.000Z,10.53
2023-04-27T08:09:35.000Z,10.83
2023-04-27T08:14:29.000Z,11.23
2023-04-27T08:19:21.000Z,11.73
2023-04-27T08:24:15.000Z,11.73
2023-04-27T08:29:09.000Z,11.71
2023-04-27T08:34:04.000Z,12.17
2023-04-27T08:38:57.000Z,12.08
2023-04-27T08:43:52.000Z,13.11
2023-04-27T08:48:46.000Z,12.67
2023-04-27T08:53:40.000Z,12.97
2023-04-27T08:58:34.000Z,13.29
2023-04-27T09:03:29.000Z,12.79
2023-04-27T09:08:23.000Z,13.29
2023-04-27T09:13:17.000Z,12.92
2023-04-27T09:18:12.000Z,13.44
2023-04-27T09:23:03.000Z,13.29
2023-04-27T09:27:54.000Z,13.37
2023-04-27T09:32:48.000Z,14.17
2023-04-27T09:37:42.000Z,16.42
2023-04-27T09:42:37.000Z,18.01
2023-04-27T09:47:33.000Z,19.85
2023-04-27T09:52:29.000Z,17.83
2023-04-27T09:57:22.000Z,18.08
2023-04-27T10:02:17.000Z,18.01
2023-04-27T10:07:12.000Z,19.65
2023-04-27T10:12:06.000Z,18.38
2023-04-27T10:17:00.000Z,16.79
2023-04-27T10:21:54.000Z,18.57
2023-04-27T10:26:48.000Z,20.99
2023-04-27T10:31:42.000Z,19.49
2023-04-27T10:36:33.000Z,19.9
2023-04-27T10:41:27.000Z,19.5
2023-04-27T10:46:22.000Z,20.76
2023-04-27T10:51:18.000Z,20.72
2023-04-27T10:56:11.000Z,20.51
2023-04-27T11:01:05.000Z,19.52
2023-04-27T11:06:00.000Z,17.86
2023-04-27T11:10:51.000Z,20.05
2023-04-27T11:15:46.000Z,20.74
2023-04-27T11:20:40.000Z,21.05
2023-04-27T11:25:35.000Z,20
2023-04-27T11:30:29.000Z,21.51
2023-04-27T11:35:24.000Z,19.56
2023-04-27T11:40:18.000Z,20.33
2023-04-27T11:45:12.000Z,20.1
2023-04-27T11:50:06.000Z,19.42
2023-04-27T11:55:00.000Z,20.95
2023-04-27T11:59:54.000Z,22
2023-04-27T12:04:49.000Z,22.82
2023-04-27T12:09:44.000Z,19.85
2023-04-27T12:14:37.000Z,20.22
2023-04-27T12:19:30.000Z,18.72
2023-04-27T12:24:24.000Z,20.43
2023-04-27T12:29:18.000Z,22.71
2023-04-27T12:34:13.000Z,22.32
2023-04-27T12:39:07.000Z,21.58
2023-04-27T12:44:01.000Z,23.81
2023-04-27T12:48:55.000Z,22.24
2023-04-27T12:53:49.000Z,21.63
2023-04-27T12:58:43.000Z,24.69
2023-04-27T13:03:38.000Z,24.49
2023-04-27T13:08:32.000Z,26.41
2023-04-27T13:13:26.000Z,26.23
2023-04-27T13:18:20.000Z,25.18
2023-04-27T13:23:15.000Z,26.29
2023-04-27T13:28:10.000Z,26.09
2023-04-27T13:33:04.000Z,25.66
2023-04-27T13:37:58.000Z,25.48
2023-04-27T13:42:52.000Z,23.53
2023-04-27T13:47:46.000Z,22.44
2023-04-27T13:52:40.000Z,23.37
2023-04-27T13:57:34.000Z,24.53
2023-04-27T14:02:28.000Z,24.43
2023-04-27T14:07:21.000Z,26.01
2023-04-27T14:12:15.000Z,25.67
2023-04-27T14:17:09.000Z,25.84
2023-04-27T14:22:03.000Z,25.16
2023-04-27T14:26:57.000Z,26.83
2023-04-27T14:31:52.000Z,25.5
2023-04-27T14:36:46.000Z,27.64
2023-04-27T14:41:41.000Z,26.23
2023-04-27T14:46:35.000Z,23.89
2023-04-27T14:51:28.000Z,21.35
2023-04-27T14:56:20.000Z,24.07
2023-04-27T15:01:14.000Z,26.47
2023-04-27T15:06:09.000Z,24.79
2023-04-27T15:11:03.000Z,23.26
2023-04-27T15:15:56.000Z,21.97
2023-04-27T15:20:50.000Z,22.17
2023-04-27T15:25:43.000Z,19.96
2023-04-27T15:30:35.000Z,20.89
2023-04-27T15:35:28.000Z,21.11
2023-04-27T15:40:22.000Z,20.84
2023-04-27T15:45:16.000Z,22.65
2023-04-27T15:50:11.000Z,24.29
2023-04-27T15:55:06.000Z,24.29
2023-04-27T16:00:00.000Z,22.92
2023-04-27T16:04:54.000Z,24.35
2023-04-27T16:09:49.000Z,22.99
2023-04-27T16:14:42.000Z,21.68
2023-04-27T16:19:36.000Z,19.8
2023-04-27T16:24:29.000Z,20.23
2023-04-27T16:29:21.000Z,22.34
2023-04-27T16:34:15.000Z,20.12
2023-04-27T16:39:09.000Z,19.08
2023-04-27T16:44:03.000Z,18.71
2023-04-27T16:48:56.000Z,17.76
2023-04-27T16:53:52.000Z,16.81
2023-04-27T16:58:43.000Z,16.66
2023-04-27T17:03:36.000Z,16.4
2023-04-27T17:08:30.000Z,16.38
2023-04-27T17:13:22.000Z,16.55
2023-04-27T17:18:16.000Z,16.33
2023-04-27T17:23:10.000Z,16.21
2023-04-27T17:28:03.000Z,15.94
2023-04-27T17:32:56.000Z,15.81
2023-04-27T17:37:50.000Z,15.69
2023-04-27T17:42:45.000Z,15.56
2023-04-27T17:47:38.000Z,15.61
2023-04-27T17:52:32.000Z,15.54
2023-04-27T17:57:25.000Z,15.71
2023-04-27T18:02:19.000Z,15.58
2023-04-27T18:07:13.000Z,15.35
2023-04-27T18:12:07.000Z,14.99
2023-04-27T18:17:01.000Z,14.86
2023-04-27T18:21:54.000Z,14.61
2023-04-27T18:26:48.000Z,14.35
2023-04-27T18:31:41.000Z,14.23
2023-04-27T18:36:35.000Z,14.19
2023-04-27T18:41:29.000Z,14.09
2023-04-27T18:46:23.000Z,13.87
2023-04-27T18:51:16.000Z,13.86
2023-04-27T18:56:10.000Z,13.77
2023-04-27T19:01:05.000Z,13.62
2023-04-27T19:05:56.000Z,13.53
2023-04-27T19:10:49.000Z,13.32
2023-04-27T19:15:43.000Z,13.21
2023-04-27T19:20:37.000Z,13.07
2023-04-27T19:25:31.000Z,12.97
2023-04-27T19:30:23.000Z,12.82
2023-04-27T19:35:17.000Z,12.91
2023-04-27T19:40:10.000Z,12.82
2023-04-27T19:45:04.000Z,12.91
2023-04-27T19:49:58.000Z,12.89
2023-04-27T19:54:52.000Z,13.01
2023-04-27T19:59:46.000Z,13.05
2023-04-27T20:04:38.000Z,12.97
2023-04-27T20:09:33.000Z,13.05
2023-04-27T20:14:27.000Z,12.98
2023-04-27T20:19:21.000Z,12.99
2023-04-27T20:24:15.000Z,12.99
2023-04-27T20:29:09.000Z,12.94
2023-04-27T20:34:03.000Z,12.93
2023-04-27T20:38:57.000Z,12.91
2023-04-27T20:43:52.000Z,12.87
2023-04-27T20:48:46.000Z,12.87
2023-04-27T20:53:40.000Z,12.77
2023-04-27T20:58:34.000Z,12.76
2023-04-27T21:03:28.000Z,12.76
2023-04-27T21:08:23.000Z,12.7
2023-04-27T21:13:17.000Z,12.78
2023-04-27T21:18:11.000Z,12.79
2023-04-27T21:23:02.000Z,12.76
2023-04-27T21:27:56.000Z,12.71
2023-04-27T21:32:50.000Z,12.65
2023-04-27T21:37:44.000Z,12.61
2023-04-27T21:42:38.000Z,12.55
2023-04-27T21:47:31.000Z,12.58
2023-04-27T21:52:25.000Z,12.58
2023-04-27T21:57:19.000Z,12.64
2023-04-27T22:02:13.000Z,12.63
2023-04-27T22:07:07.000Z,12.62
2023-04-27T22:12:02.000Z,12.56
2023-04-27T22:16:56.000Z,12.73
2023-04-27T22:21:50.000Z,12.84
2023-04-27T22:26:44.000Z,12.85
2023-04-27T22:31:36.000Z,12.87
2023-04-27T22:36:30.000Z,12.87
2023-04-27T22:41:24.000Z,12.85
2023-04-27T22:46:17.000Z,12.83
2023-04-27T22:51:11.000Z,12.82
2023-04-27T22:56:06.000Z,12.76
2023-04-27T23:01:00.000Z,12.77
2023-04-27T23:05:54.000Z,12.74
2023-04-27T23:10:47.000Z,12.6
2023-04-27T23:15:41.000Z,12.55
2023-04-27T23:20:35.000Z,12.56
2023-04-27T23:25:29.000Z,12.44
2023-04-27T23:30:24.000Z,12.47
2023-04-27T23:35:17.000Z,12.57
2023-04-27T23:40:12.000Z,12.64
2023-04-27T23:45:04.000Z,12.73
2023-04-27T23:49:58.000Z,12.74
2023-04-27T23:54:52.000Z,12.7
2023-04-27T23:59:46.000Z,12.62
